Time;durP1;ratioP1;P1;durP2;ratioP2;P2;SDS_P1;SDS_P2;PMS_P1;PMS_P2;Temp;Humidity;BMP_temperature;BMP_pressure;BME280_temperature;BME280_humidity;BME280_pressure;Samples;Min_cycle;Max_cycle;Signal;HPM_P1;HPM_P2
2023/01/04 00:01:14;;;;;;;13.30;7.00;;;4.20;99.90;;;;;;4966162;28;20123;-74
2023/01/04 00:03:41;;;;;;;10.18;6.55;;;4.30;99.90;;;;;;4957697;28;20078;-74
2023/01/04 00:06:11;;;;;;;10.18;6.57;;;4.30;99.90;;;;;;4955491;28;20034;-74
2023/01/04 00:08:38;;;;;;;12.95;6.82;;;4.40;99.90;;;;;;4957531;28;20057;-73
2023/01/04 00:11:12;;;;;;;9.02;7.00;;;4.50;99.90;;;;;;4963298;28;20516;-74
2023/01/04 00:13:39;;;;;;;8.73;7.53;;;4.60;99.90;;;;;;4970727;28;20077;-73
2023/01/04 00:16:10;;;;;;;13.60;9.38;;;4.60;99.90;;;;;;4961664;28;20125;-73
2023/01/04 00:18:37;;;;;;;17.60;9.43;;;4.60;99.90;;;;;;4969192;28;20054;-73
2023/01/04 00:21:24;;;;;;;12.05;8.98;;;4.60;99.90;;;;;;4959006;28;20122;-73
2023/01/04 00:23:54;;;;;;;9.07;7.85;;;4.60;99.90;;;;;;4966221;28;20125;-73
2023/01/04 00:26:32;;;;;;;9.13;8.23;;;4.60;99.90;;;;;;4957991;28;20042;-73
2023/01/04 00:29:01;;;;;;;13.13;8.88;;;4.60;99.90;;;;;;4963186;28;20532;-73
2023/01/04 00:31:28;;;;;;;11.65;8.80;;;4.70;99.90;;;;;;4965700;28;20054;-74
2023/01/04 00:33:57;;;;;;;9.57;8.60;;;4.70;99.90;;;;;;4989878;28;20442;-73
2023/01/04 00:36:25;;;;;;;10.80;9.90;;;4.80;99.90;;;;;;4965458;28;20118;-74
2023/01/04 00:39:08;;;;;;;11.05;9.43;;;4.80;99.90;;;;;;4968841;28;20129;-73
2023/01/04 00:41:49;;;;;;;11.23;10.00;;;4.80;99.90;;;;;;4959514;28;20118;-73
2023/01/04 00:44:27;;;;;;;11.60;10.35;;;4.80;99.90;;;;;;4967213;28;20066;-74
2023/01/04 00:46:53;;;;;;;10.35;9.20;;;4.80;99.90;;;;;;4990757;28;20089;-73
2023/01/04 00:49:20;;;;;;;11.65;10.45;;;4.80;99.90;;;;;;4972809;28;20159;-74
2023/01/04 00:51:47;;;;;;;10.88;9.88;;;4.90;99.90;;;;;;4970600;28;20050;-73
2023/01/04 00:54:15;;;;;;;11.43;10.27;;;4.90;99.90;;;;;;4987976;28;20023;-73
2023/01/04 00:56:42;;;;;;;10.95;9.68;;;4.90;99.90;;;;;;4992868;28;20093;-74
2023/01/04 00:59:10;;;;;;;13.40;9.88;;;4.90;99.90;;;;;;4997186;28;20082;-73
2023/01/04 01:01:38;;;;;;;11.38;9.15;;;4.90;99.90;;;;;;4964749;28;20520;-73
2023/01/04 01:04:06;;;;;;;10.27;9.23;;;4.90;99.90;;;;;;4970670;28;20050;-74
2023/01/04 01:06:33;;;;;;;11.35;9.55;;;4.90;99.90;;;;;;4960968;28;20113;-75
2023/01/04 01:09:00;;;;;;;11.98;9.57;;;4.90;99.90;;;;;;5001895;28;20038;-74
2023/01/04 01:11:29;;;;;;;11.02;8.95;;;4.90;99.90;;;;;;4959479;28;20130;-74
2023/01/04 01:13:56;;;;;;;10.45;9.57;;;4.90;99.90;;;;;;4965979;28;20143;-72
2023/01/04 01:16:24;;;;;;;11.23;9.40;;;5.00;99.90;;;;;;4967246;28;20114;-72
2023/01/04 01:19:11;;;;;;;10.80;9.75;;;5.00;99.90;;;;;;4961068;28;20057;-72
2023/01/04 01:21:38;;;;;;;10.20;9.25;;;4.90;99.90;;;;;;4964078;28;20076;-71
2023/01/04 01:24:05;;;;;;;10.52;9.63;;;4.90;99.90;;;;;;4965427;28;20051;-72
2023/01/04 01:26:32;;;;;;;15.25;9.70;;;4.90;99.90;;;;;;4974809;28;20121;-72
2023/01/04 01:28:58;;;;;;;11.05;9.85;;;4.90;99.90;;;;;;4977307;28;20050;-71
2023/01/04 01:31:27;;;;;;;15.30;10.70;;;5.00;99.90;;;;;;4972799;28;20129;-72
2023/01/04 01:33:55;;;;;;;10.98;9.63;;;5.00;99.90;;;;;;4985297;28;20042;-72
2023/01/04 01:36:24;;;;;;;10.88;9.98;;;5.10;99.90;;;;;;4965387;28;20058;-72
2023/01/04 01:38:52;;;;;;;12.88;10.15;;;5.10;99.90;;;;;;4960844;28;20110;-72
2023/01/04 01:41:27;;;;;;;11.05;10.07;;;5.20;99.90;;;;;;4966067;28;20049;-72
2023/01/04 01:44:01;;;;;;;11.13;10.10;;;5.20;99.90;;;;;;4956429;28;20130;-72
2023/01/04 01:46:40;;;;;;;11.90;10.82;;;5.20;99.90;;;;;;4972568;28;20204;-72
2023/01/04 01:49:29;;;;;;;13.00;11.80;;;5.30;99.90;;;;;;4980446;28;20046;-72
2023/01/04 01:51:58;;;;;;;14.10;11.35;;;5.40;99.90;;;;;;5001232;28;20053;-72
2023/01/04 01:54:31;;;;;;;12.15;11.27;;;5.40;99.90;;;;;;4966347;28;20051;-71
2023/01/04 01:57:00;;;;;;;13.73;11.60;;;5.50;99.90;;;;;;4963383;28;20054;-72
2023/01/04 01:59:28;;;;;;;13.35;11.93;;;5.50;99.90;;;;;;4970897;28;20779;-73
2023/01/04 02:01:55;;;;;;;13.02;11.90;;;5.50;99.90;;;;;;4965185;28;20404;-72
2023/01/04 02:04:23;;;;;;;13.63;12.30;;;5.60;99.90;;;;;;4962861;28;20480;-72
2023/01/04 02:06:55;;;;;;;14.70;13.32;;;5.70;99.90;;;;;;4959961;28;20138;-71
2023/01/04 02:09:22;;;;;;;13.50;12.25;;;5.80;99.90;;;;;;4964379;28;20059;-72
2023/01/04 02:11:49;;;;;;;20.48;11.77;;;5.80;99.90;;;;;;4962540;28;20141;-72
2023/01/04 02:14:27;;;;;;;13.88;12.70;;;5.80;99.90;;;;;;4982088;28;20476;-72
2023/01/04 02:17:09;;;;;;;12.15;11.35;;;5.80;99.90;;;;;;4964613;28;20047;-72
2023/01/04 02:19:45;;;;;;;13.02;12.13;;;5.90;99.90;;;;;;4965618;28;20039;-72
2023/01/04 02:22:45;;;;;;;12.90;12.02;;;5.90;99.90;;;;;;4965495;28;20050;-72
2023/01/04 02:25:49;;;;;;;14.05;12.82;;;6.00;99.90;;;;;;4961451;28;20043;-72
2023/01/04 02:28:44;;;;;;;13.07;12.35;;;6.10;99.90;;;;;;4962923;28;20047;-72
2023/01/04 02:31:27;;;;;;;14.32;13.07;;;6.20;99.90;;;;;;4966274;28;20070;-72
2023/01/04 02:33:59;;;;;;;14.02;12.75;;;6.20;99.90;;;;;;4963930;28;20057;-72
2023/01/04 02:36:44;;;;;;;14.77;13.65;;;6.20;99.90;;;;;;4971667;28;20433;-71
2023/01/04 02:39:38;;;;;;;14.80;13.70;;;6.30;99.90;;;;;;4948741;28;20230;-71
2023/01/04 02:42:23;;;;;;;14.75;13.57;;;6.30;99.90;;;;;;4960821;28;20141;-71
2023/01/04 02:45:03;;;;;;;13.63;12.88;;;6.30;99.90;;;;;;4966873;28;20082;-72
2023/01/04 02:50:51;;;;;;;13.77;12.50;;;6.30;99.90;;;;;;4961106;28;20364;-74
2023/01/04 02:53:21;;;;;;;13.80;12.80;;;6.30;99.90;;;;;;4959588;28;20068;-72
2023/01/04 02:56:14;;;;;;;14.68;13.35;;;6.30;99.90;;;;;;4965308;28;20051;-72
2023/01/04 02:59:11;;;;;;;11.57;10.70;;;6.30;99.90;;;;;;4964654;28;20066;-71
2023/01/04 03:08:39;;;;;;;14.13;8.32;;;6.10;99.90;;;;;;4963315;28;20523;-73
2023/01/04 03:14:14;;;;;;;10.80;7.60;;;6.00;99.90;;;;;;5014996;28;20152;-71
2023/01/04 03:17:03;;;;;;;9.13;6.97;;;6.00;99.90;;;;;;5016724;28;20049;-69
2023/01/04 03:19:50;;;;;;;20.17;7.85;;;5.90;99.90;;;;;;5018859;28;20140;-72
2023/01/04 03:36:59;;;;;;;16.38;8.57;;;5.80;99.90;;;;;;5014590;28;20046;-71
2023/01/04 03:49:12;;;;;;;23.13;8.95;;;5.80;99.90;;;;;;5015395;28;20301;-71
2023/01/04 03:51:39;;;;;;;19.17;8.75;;;5.90;99.90;;;;;;5012345;28;20045;-71
2023/01/04 03:54:20;;;;;;;22.17;9.80;;;5.80;99.90;;;;;;5013319;28;20546;-72
2023/01/04 03:56:49;;;;;;;18.13;9.13;;;5.90;99.90;;;;;;5015023;28;20045;-71
2023/01/04 03:59:16;;;;;;;21.63;8.60;;;5.90;99.90;;;;;;5014672;28;20046;-72
2023/01/04 04:01:44;;;;;;;17.20;9.40;;;5.90;99.90;;;;;;5014659;28;20446;-71
2023/01/04 04:09:41;;;;;;;17.80;9.47;;;5.90;99.90;;;;;;5016018;28;19921;-71
2023/01/04 04:12:08;;;;;;;25.98;9.52;;;6.00;99.90;;;;;;5014773;28;20040;-71
2023/01/04 04:14:34;;;;;;;17.50;8.88;;;6.00;99.90;;;;;;5016992;28;20578;-72
2023/01/04 04:17:01;;;;;;;14.35;8.13;;;6.00;99.90;;;;;;5015932;28;20053;-71
2023/01/04 04:19:28;;;;;;;12.10;6.80;;;6.10;99.90;;;;;;5011664;28;20134;-71
2023/01/04 04:21:55;;;;;;;17.75;7.00;;;6.20;99.90;;;;;;5014302;28;20052;-71
2023/01/04 04:24:24;;;;;;;13.77;6.70;;;6.20;99.90;;;;;;5014435;28;20792;-71
2023/01/04 04:26:53;;;;;;;11.85;6.80;;;6.20;99.90;;;;;;5013095;28;20520;-71
2023/01/04 04:29:20;;;;;;;14.35;4.75;;;6.30;99.90;;;;;;5015504;28;20350;-71
2023/01/04 04:31:47;;;;;;;15.38;5.15;;;6.30;99.90;;;;;;5013158;28;20042;-71
2023/01/04 04:34:14;;;;;;;9.00;3.33;;;6.40;99.90;;;;;;5015940;28;20045;-71
2023/01/04 04:36:40;;;;;;;6.15;3.28;;;6.60;99.90;;;;;;5016774;28;20037;-71
2023/01/04 04:39:07;;;;;;;9.00;2.97;;;6.70;99.90;;;;;;5015667;28;20338;-71
2023/01/04 04:41:37;;;;;;;4.47;2.40;;;6.80;99.90;;;;;;5016864;28;20041;-71
2023/01/04 04:44:24;;;;;;;3.30;2.00;;;7.00;99.90;;;;;;5013616;28;20065;-72
2023/01/04 04:46:51;;;;;;;4.43;1.70;;;7.20;99.90;;;;;;5014393;28;20439;-71
2023/01/04 04:49:17;;;;;;;1.95;1.80;;;7.30;99.90;;;;;;5014965;28;20161;-72
2023/01/04 04:51:45;;;;;;;3.22;2.40;;;7.30;99.90;;;;;;5016335;28;20044;-71
2023/01/04 04:54:19;;;;;;;3.70;2.90;;;7.40;99.90;;;;;;5014355;28;20051;-71
2023/01/04 04:56:47;;;;;;;2.80;2.40;;;7.50;99.90;;;;;;5015214;28;20038;-72
2023/01/04 04:59:14;;;;;;;2.65;2.45;;;7.60;99.90;;;;;;5013989;28;20049;-70
2023/01/04 05:01:41;;;;;;;3.10;2.42;;;7.60;99.90;;;;;;5014205;28;20274;-71
2023/01/04 05:04:08;;;;;;;2.90;2.70;;;7.60;99.90;;;;;;5009037;28;20065;-71
2023/01/04 05:06:35;;;;;;;4.70;2.90;;;7.60;99.90;;;;;;5017587;28;20041;-71
2023/01/04 05:09:01;;;;;;;2.80;2.60;;;7.60;99.90;;;;;;5014107;28;20050;-71
2023/01/04 05:14:13;;;;;;;3.22;3.00;;;7.70;99.90;;;;;;5018072;28;20042;-71
2023/01/04 05:16:40;;;;;;;3.22;2.92;;;7.80;99.90;;;;;;5019623;28;20418;-71
2023/01/04 05:19:07;;;;;;;3.88;2.35;;;7.70;99.90;;;;;;5019341;28;20050;-71
2023/01/04 05:21:33;;;;;;;2.65;2.47;;;7.70;99.90;;;;;;5021176;28;20474;-71
2023/01/04 05:24:00;;;;;;;2.75;2.47;;;7.80;99.90;;;;;;5017012;28;20049;-71
2023/01/04 05:26:27;;;;;;;3.30;2.30;;;7.80;99.90;;;;;;5019354;28;20455;-71
2023/01/04 05:28:53;;;;;;;3.60;2.30;;;7.80;99.90;;;;;;5018909;28;20041;-71
2023/01/04 05:31:20;;;;;;;2.78;2.58;;;7.80;99.90;;;;;;5018485;28;20495;-71
2023/01/04 05:33:47;;;;;;;3.40;2.67;;;7.80;99.90;;;;;;5018696;28;20430;-71
2023/01/04 05:36:14;;;;;;;6.00;2.75;;;7.80;99.90;;;;;;5016736;28;20037;-71
2023/01/04 05:38:41;;;;;;;1.90;1.80;;;7.80;99.90;;;;;;5020386;28;20041;-71
2023/01/04 05:42:23;;;;;;;2.63;1.92;;;7.80;99.90;;;;;;5016409;28;20499;-71
2023/01/04 05:43:54;;;;;;;2.75;2.33;;;7.80;99.90;;;;;;5017468;28;20048;-71
2023/01/04 05:46:21;;;;;;;5.03;3.05;;;7.80;99.90;;;;;;5016320;28;20537;-71
2023/01/04 05:48:48;;;;;;;3.38;3.10;;;7.90;99.90;;;;;;5018208;28;20041;-71
2023/01/04 05:51:15;;;;;;;2.88;2.30;;;7.90;99.90;;;;;;5016801;28;20087;-72
2023/01/04 05:53:41;;;;;;;2.03;1.92;;;7.90;99.90;;;;;;5018181;28;20044;-71
2023/01/04 05:56:08;;;;;;;2.20;2.10;;;7.90;99.90;;;;;;5014621;28;20507;-71
2023/01/04 05:58:34;;;;;;;2.20;2.10;;;7.90;99.90;;;;;;5019874;28;20033;-71
2023/01/04 06:01:01;;;;;;;2.38;2.28;;;8.00;99.90;;;;;;5016286;28;20180;-71
2023/01/04 06:03:28;;;;;;;2.20;2.00;;;8.00;99.90;;;;;;5012740;28;20253;-71
2023/01/04 06:05:55;;;;;;;2.42;2.33;;;8.00;99.90;;;;;;5017079;28;20129;-71
2023/01/04 06:08:21;;;;;;;2.58;2.28;;;8.00;99.90;;;;;;5015985;28;21233;-71
2023/01/04 06:10:53;;;;;;;2.60;2.50;;;8.00;99.90;;;;;;5016884;28;20047;-70
2023/01/04 06:13:20;;;;;;;3.13;2.83;;;8.10;99.90;;;;;;5017602;28;20042;-71
2023/01/04 06:15:46;;;;;;;2.63;2.53;;;8.10;99.90;;;;;;5001562;28;20497;-71
2023/01/04 06:18:13;;;;;;;3.53;2.97;;;8.10;99.90;;;;;;5015640;28;20496;-71
2023/01/04 06:20:42;;;;;;;2.70;2.60;;;8.20;99.90;;;;;;5016077;28;20037;-71
2023/01/04 06:23:09;;;;;;;4.68;3.10;;;8.10;99.90;;;;;;5012871;28;20037;-71
2023/01/04 06:25:36;;;;;;;3.47;3.38;;;8.20;99.90;;;;;;5016497;28;20034;-71
2023/01/04 06:28:03;;;;;;;3.47;3.28;;;8.30;99.90;;;;;;5016863;28;20400;-71
2023/01/04 06:30:29;;;;;;;4.20;4.00;;;8.30;99.90;;;;;;5016732;28;20531;-71
2023/01/04 06:32:56;;;;;;;3.78;3.53;;;8.30;99.90;;;;;;5016589;28;20056;-71
2023/01/04 06:35:23;;;;;;;4.28;3.97;;;8.30;99.90;;;;;;5017613;28;20112;-71
2023/01/04 06:37:49;;;;;;;3.90;3.70;;;8.40;99.90;;;;;;5018520;28;20029;-71
2023/01/04 06:40:16;;;;;;;4.50;4.30;;;8.40;99.90;;;;;;5016138;28;20258;-71
2023/01/04 06:42:46;;;;;;;4.90;4.60;;;8.50;99.90;;;;;;5018471;28;20132;-70
2023/01/04 06:45:14;;;;;;;5.13;4.82;;;8.60;99.90;;;;;;5014667;28;20050;-71
2023/01/04 06:47:41;;;;;;;4.82;4.60;;;8.60;99.90;;;;;;5019370;28;20041;-71
2023/01/04 06:50:09;;;;;;;4.78;4.50;;;8.50;99.90;;;;;;5014800;28;20392;-70
2023/01/04 06:52:36;;;;;;;4.63;4.43;;;8.60;99.90;;;;;;5036192;28;20159;-71
2023/01/04 06:55:03;;;;;;;4.53;4.32;;;8.60;99.90;;;;;;5034479;28;20506;-70
2023/01/04 06:57:31;;;;;;;5.00;4.80;;;8.70;99.90;;;;;;5020650;28;20494;-71
2023/01/04 06:59:57;;;;;;;4.30;4.20;;;8.70;99.90;;;;;;5034782;28;20431;-71
2023/01/04 07:02:25;;;;;;;4.57;4.30;;;8.70;99.90;;;;;;5035517;28;20473;-71
2023/01/04 07:04:52;;;;;;;5.22;5.00;;;8.70;99.90;;;;;;5036264;28;20132;-70
2023/01/04 07:07:19;;;;;;;5.90;5.50;;;8.70;99.90;;;;;;5035793;28;20521;-70
2023/01/04 07:09:46;;;;;;;4.82;4.53;;;8.70;99.90;;;;;;5037509;28;20044;-71
2023/01/04 07:12:13;;;;;;;4.63;4.43;;;8.70;99.90;;;;;;5034957;28;20080;-71
2023/01/04 07:14:39;;;;;;;4.50;4.30;;;8.70;99.90;;;;;;5038433;28;20483;-71
2023/01/04 07:17:06;;;;;;;4.78;4.35;;;8.70;99.90;;;;;;5033624;28;20036;-71
2023/01/04 07:19:32;;;;;;;3.80;3.70;;;8.70;99.90;;;;;;5035833;28;20055;-70
2023/01/04 07:22:00;;;;;;;4.93;4.72;;;8.70;99.90;;;;;;5033554;28;20069;-71
2023/01/04 07:24:27;;;;;;;4.00;3.80;;;8.80;99.90;;;;;;5030592;28;20048;-71
2023/01/04 07:26:58;;;;;;;3.88;3.78;;;8.80;99.90;;;;;;5034722;28;20037;-71
2023/01/04 07:29:25;;;;;;;4.00;3.90;;;8.80;99.90;;;;;;5036662;28;20049;-71
2023/01/04 07:31:52;;;;;;;4.30;4.10;;;8.80;99.90;;;;;;5034978;28;20063;-70
2023/01/04 07:34:22;;;;;;;3.95;3.75;;;8.80;99.90;;;;;;5035138;28;20045;-71
2023/01/04 07:36:49;;;;;;;3.70;3.60;;;8.80;99.90;;;;;;5034434;28;20554;-71
2023/01/04 07:39:17;;;;;;;4.25;4.00;;;8.80;99.90;;;;;;5034084;28;20451;-71
2023/01/04 07:41:44;;;;;;;3.95;3.75;;;8.80;99.90;;;;;;5037282;28;20522;-71
2023/01/04 07:44:13;;;;;;;3.90;3.75;;;8.80;99.90;;;;;;5034537;28;21172;-71
2023/01/04 07:46:41;;;;;;;4.60;4.40;;;8.80;99.90;;;;;;5037218;28;20049;-71
2023/01/04 07:49:12;;;;;;;4.53;4.32;;;8.90;99.90;;;;;;5034801;28;21530;-71
2023/01/04 07:51:44;;;;;;;4.30;4.10;;;8.90;99.90;;;;;;5037175;28;20047;-71
2023/01/04 07:54:12;;;;;;;4.80;4.60;;;8.90;99.90;;;;;;5032959;28;20049;-71
2023/01/04 07:56:38;;;;;;;4.57;4.38;;;8.90;99.90;;;;;;5036777;28;20630;-71
2023/01/04 07:59:09;;;;;;;4.15;3.95;;;8.90;99.90;;;;;;5034480;28;20041;-70
2023/01/04 08:01:37;;;;;;;4.05;3.95;;;8.90;99.90;;;;;;5037187;28;20047;-71
2023/01/04 08:04:05;;;;;;;4.35;4.15;;;8.90;99.90;;;;;;5034666;28;20037;-71
2023/01/04 08:06:33;;;;;;;4.30;4.15;;;8.90;99.90;;;;;;5036656;28;20059;-71
2023/01/04 08:09:01;;;;;;;4.10;3.90;;;9.00;99.90;;;;;;5033894;28;20053;-71
2023/01/04 08:11:28;;;;;;;5.55;5.28;;;9.00;99.90;;;;;;5067318;28;20048;-71
2023/01/04 08:13:54;;;;;;;4.88;4.68;;;9.00;99.90;;;;;;5034832;28;20511;-72
2023/01/04 08:16:26;;;;;;;5.47;5.18;;;9.00;99.90;;;;;;5037137;28;20033;-69
2023/01/04 08:18:54;;;;;;;5.00;4.72;;;9.10;99.90;;;;;;5035786;28;20053;-71
2023/01/04 08:21:22;;;;;;;5.43;5.22;;;9.10;99.90;;;;;;5036769;28;20041;-71
2023/01/04 08:23:49;;;;;;;6.10;5.70;;;9.10;99.90;;;;;;5035493;28;20033;-72
2023/01/04 08:26:17;;;;;;;5.00;4.80;;;9.10;99.90;;;;;;5034678;28;20033;-69
2023/01/04 08:28:44;;;;;;;5.28;4.97;;;9.10;99.90;;;;;;5037523;28;20045;-72
2023/01/04 08:31:13;;;;;;;4.88;4.57;;;9.10;99.90;;;;;;5031593;28;20044;-70
2023/01/04 08:33:41;;;;;;;4.72;4.40;;;9.10;99.90;;;;;;5035011;28;20037;-70
2023/01/04 08:36:23;;;;;;;4.07;3.88;;;9.10;99.90;;;;;;5025892;28;20049;-69
2023/01/04 08:39:02;;;;;;;3.00;2.90;;;9.10;99.90;;;;;;5033152;28;20398;-69
2023/01/04 08:41:30;;;;;;;2.15;2.05;;;9.10;99.90;;;;;;5030233;28;20037;-70
2023/01/04 08:44:21;;;;;;;2.17;2.00;;;9.00;99.90;;;;;;5032827;28;20029;-70
2023/01/04 08:46:49;;;;;;;1.63;1.55;;;9.00;99.90;;;;;;5035655;28;20055;-70
2023/01/04 08:49:16;;;;;;;1.98;1.40;;;8.90;99.90;;;;;;5035524;28;20422;-70
2023/01/04 08:51:44;;;;;;;2.20;2.10;;;8.90;99.90;;;;;;5037686;28;20044;-69
2023/01/04 08:54:11;;;;;;;2.58;2.47;;;8.90;99.90;;;;;;5035330;28;20056;-70
2023/01/04 08:56:38;;;;;;;3.38;3.17;;;8.90;99.90;;;;;;5038661;28;20040;-70
2023/01/04 08:59:05;;;;;;;3.58;3.30;;;9.00;99.90;;;;;;5035239;28;20416;-70
2023/01/04 09:01:35;;;;;;;3.50;3.30;;;9.00;99.90;;;;;;5038620;28;20037;-70
2023/01/04 09:04:02;;;;;;;3.45;3.17;;;8.90;99.90;;;;;;5036618;28;20034;-70
2023/01/04 09:06:29;;;;;;;3.10;3.00;;;8.90;99.90;;;;;;5031961;28;20068;-70
2023/01/04 09:08:56;;;;;;;3.38;3.28;;;8.90;99.90;;;;;;5038362;28;20045;-72
2023/01/04 09:11:24;;;;;;;3.42;3.33;;;8.90;99.90;;;;;;5021898;23;20422;-71
2023/01/04 09:13:56;;;;;;;3.45;3.35;;;8.90;99.90;;;;;;4985163;28;20137;-72
2023/01/04 09:16:32;;;;;;;3.20;3.10;;;8.90;99.90;;;;;;4996623;28;20042;-72
2023/01/04 09:18:59;;;;;;;3.42;3.33;;;9.00;99.90;;;;;;4985760;28;20045;-71
2023/01/04 09:21:26;;;;;;;4.03;3.90;;;9.00;99.90;;;;;;4971518;28;20049;-71
2023/01/04 09:23:53;;;;;;;4.65;4.45;;;9.00;99.90;;;;;;4995619;28;20062;-71
2023/01/04 09:26:22;;;;;;;5.07;4.63;;;9.10;99.90;;;;;;4992916;28;20042;-71
2023/01/04 09:28:51;;;;;;;4.60;4.40;;;9.10;99.90;;;;;;4997768;28;20137;-70
2023/01/04 09:31:20;;;;;;;4.78;4.60;;;9.10;99.90;;;;;;4983307;28;20092;-71
2023/01/04 09:33:47;;;;;;;5.38;5.18;;;9.20;99.90;;;;;;4996377;28;20041;-72
2023/01/04 09:36:34;;;;;;;5.95;5.65;;;9.20;99.90;;;;;;4985045;28;20080;-72
2023/01/04 09:39:00;;;;;;;6.03;5.82;;;9.20;99.90;;;;;;4993974;28;20054;-72
2023/01/04 09:41:29;;;;;;;5.38;5.18;;;9.20;99.90;;;;;;4988203;28;20030;-72
2023/01/04 09:44:01;;;;;;;6.63;6.43;;;9.30;99.90;;;;;;4994628;28;20042;-71
2023/01/04 09:46:37;;;;;;;5.07;4.88;;;9.30;99.90;;;;;;4985295;28;20509;-72
2023/01/04 09:49:04;;;;;;;4.72;4.53;;;9.40;99.90;;;;;;4990033;28;20387;-71
2023/01/04 09:51:35;;;;;;;4.90;4.80;;;9.40;99.90;;;;;;4988349;28;20160;-71
2023/01/04 09:54:11;;;;;;;6.35;5.95;;;9.40;99.90;;;;;;4989414;28;20046;-71
2023/01/04 09:56:50;;;;;;;7.55;7.15;;;9.40;99.90;;;;;;4985581;28;20046;-71
2023/01/04 09:59:22;;;;;;;6.88;6.25;;;9.30;99.90;;;;;;4989456;28;20050;-71
2023/01/04 10:02:13;;;;;;;4.60;4.40;;;9.30;99.90;;;;;;4982961;28;20057;-71
2023/01/04 10:04:49;;;;;;;4.30;4.10;;;9.30;99.90;;;;;;4983826;28;20042;-72
2023/01/04 10:07:30;;;;;;;5.63;5.22;;;9.30;99.90;;;;;;4970563;28;20047;-71
2023/01/04 10:09:58;;;;;;;5.68;5.40;;;9.30;99.90;;;;;;4973338;28;20145;-73
2023/01/04 10:12:39;;;;;;;6.20;5.90;;;9.40;99.90;;;;;;4964049;28;20424;-71
2023/01/04 10:15:13;;;;;;;6.55;6.35;;;9.50;99.90;;;;;;4967784;28;20488;-71
2023/01/04 10:18:08;;;;;;;6.90;6.60;;;9.60;99.90;;;;;;4972620;28;20056;-70
2023/01/04 10:21:15;;;;;;;6.63;6.35;;;9.60;99.90;;;;;;4962635;28;20049;-72
2023/01/04 10:24:14;;;;;;;7.13;6.82;;;9.60;99.90;;;;;;4969591;28;20050;-71
2023/01/04 10:26:46;;;;;;;8.23;7.82;;;9.70;99.90;;;;;;4974362;28;20046;-71
2023/01/04 10:29:37;;;;;;;9.48;9.07;;;9.80;99.90;;;;;;4969941;28;20054;-73
2023/01/04 10:32:19;;;;;;;5.15;4.95;;;9.80;99.90;;;;;;4962299;28;20057;-75
2023/01/04 10:34:47;;;;;;;3.85;3.70;;;9.70;99.90;;;;;;4971416;28;20050;-73
2023/01/04 10:37:23;;;;;;;3.65;3.45;;;9.60;99.90;;;;;;4961803;28;20502;-71
2023/01/04 10:39:54;;;;;;;3.40;3.20;;;9.60;99.90;;;;;;4965035;28;20050;-72
2023/01/04 10:42:33;;;;;;;5.10;4.90;;;9.60;99.90;;;;;;4950352;28;20130;-71
2023/01/04 10:45:12;;;;;;;4.97;4.78;;;9.70;99.90;;;;;;4968846;28;20174;-72
2023/01/04 10:47:49;;;;;;;6.30;6.00;;;9.70;99.90;;;;;;4963985;28;20050;-71
2023/01/04 10:50:26;;;;;;;6.90;6.50;;;9.90;99.90;;;;;;4968812;28;20050;-71
2023/01/04 10:53:00;;;;;;;6.38;6.07;;;9.80;99.90;;;;;;4964908;28;20046;-74
2023/01/04 10:55:38;;;;;;;5.43;5.13;;;9.80;99.90;;;;;;4965075;28;20073;-74
2023/01/04 10:58:32;;;;;;;4.70;4.50;;;9.70;99.90;;;;;;4968445;28;20046;-71
2023/01/04 11:01:06;;;;;;;4.32;4.13;;;9.70;99.90;;;;;;4954125;28;20039;-72
2023/01/04 11:03:50;;;;;;;4.32;4.22;;;9.70;99.90;;;;;;4955377;28;20520;-72
2023/01/04 11:06:29;;;;;;;4.30;4.00;;;9.70;99.90;;;;;;4950777;28;20654;-74
2023/01/04 11:09:10;;;;;;;3.22;3.13;;;9.70;99.90;;;;;;4970634;28;20047;-74
2023/01/04 11:11:46;;;;;;;2.92;2.72;;;9.60;99.90;;;;;;4962603;28;20078;-75
2023/01/04 11:14:14;;;;;;;3.08;2.88;;;9.50;99.90;;;;;;4964516;28;21357;-75
2023/01/04 11:16:45;;;;;;;3.92;3.63;;;9.50;99.90;;;;;;4971546;28;20046;-75
2023/01/04 11:19:12;;;;;;;3.83;3.63;;;9.50;99.90;;;;;;4951111;28;20145;-74
2023/01/04 11:21:56;;;;;;;4.13;3.92;;;9.50;99.90;;;;;;4964701;28;20038;-74
2023/01/04 11:24:23;;;;;;;3.58;3.28;;;9.60;99.90;;;;;;4968212;28;20402;-74
2023/01/04 11:27:05;;;;;;;3.40;3.30;;;9.60;99.90;;;;;;4965634;28;20061;-74
2023/01/04 11:29:40;;;;;;;6.20;5.70;;;9.60;99.90;;;;;;4969862;28;20038;-74
2023/01/04 11:32:30;;;;;;;3.70;3.50;;;9.60;99.90;;;;;;4960039;28;20134;-74
2023/01/04 11:34:56;;;;;;;4.75;4.47;;;9.60;99.90;;;;;;4961203;28;20039;-75
2023/01/04 11:37:26;;;;;;;3.63;3.42;;;9.60;99.90;;;;;;4971316;28;20039;-74
2023/01/04 11:40:23;;;;;;;3.38;3.28;;;9.60;99.90;;;;;;4970605;28;20045;-74
2023/01/04 11:43:08;;;;;;;3.72;3.53;;;9.60;99.90;;;;;;4977085;28;20038;-74
2023/01/04 11:45:35;;;;;;;4.32;4.03;;;9.60;99.90;;;;;;4949545;28;20398;-74
2023/01/04 11:48:05;;;;;;;3.78;3.50;;;9.60;99.90;;;;;;4969471;28;20064;-75
2023/01/04 11:50:47;;;;;;;4.18;3.88;;;9.60;99.90;;;;;;4947680;28;20165;-74
2023/01/04 11:53:30;;;;;;;6.63;5.82;;;9.60;99.90;;;;;;4945535;28;20054;-71
2023/01/04 11:56:08;;;;;;;5.63;5.13;;;9.60;99.90;;;;;;4969057;28;20069;-74
2023/01/04 11:58:35;;;;;;;3.47;3.28;;;9.60;99.90;;;;;;4960980;28;20415;-75
2023/01/04 12:01:02;;;;;;;4.90;4.35;;;9.70;99.90;;;;;;4961988;28;20460;-74
2023/01/04 12:03:33;;;;;;;3.80;3.70;;;9.70;99.90;;;;;;4957562;28;20042;-74
2023/01/04 12:06:00;;;;;;;3.50;3.40;;;9.80;99.90;;;;;;4960485;28;20046;-74
2023/01/04 12:08:32;;;;;;;3.80;3.70;;;9.80;99.90;;;;;;4959984;28;20050;-74
2023/01/04 12:11:02;;;;;;;4.10;4.00;;;9.80;99.90;;;;;;4969063;28;20257;-74
2023/01/04 12:13:30;;;;;;;4.38;4.28;;;10.00;99.90;;;;;;4959358;28;20127;-74
2023/01/04 12:16:09;;;;;;;4.78;4.57;;;10.00;99.90;;;;;;4961218;28;20539;-73
2023/01/04 12:18:42;;;;;;;4.70;4.60;;;10.00;99.90;;;;;;4957073;28;20502;-74
2023/01/04 12:21:19;;;;;;;4.80;4.60;;;10.10;99.90;;;;;;4961676;28;20464;-74
2023/01/04 12:23:47;;;;;;;5.13;4.93;;;10.10;99.90;;;;;;4963569;28;20149;-74
2023/01/04 12:26:15;;;;;;;5.22;4.88;;;10.20;99.90;;;;;;4966904;28;20122;-73
2023/01/04 12:28:45;;;;;;;4.95;4.75;;;10.20;99.90;;;;;;4970736;28;20038;-75
2023/01/04 12:31:17;;;;;;;4.55;4.35;;;10.20;99.90;;;;;;4962094;28;20043;-74
2023/01/04 12:33:55;;;;;;;4.53;4.22;;;10.20;99.90;;;;;;4952775;28;20047;-74
2023/01/04 12:36:37;;;;;;;3.83;3.65;;;10.10;99.90;;;;;;4976134;28;20046;-74
2023/01/04 12:39:13;;;;;;;3.97;3.67;;;10.10;99.90;;;;;;4978474;28;20365;-74
2023/01/04 12:41:39;;;;;;;8.35;2.97;;;10.00;99.90;;;;;;4965444;28;20039;-75
2023/01/04 12:44:45;;;;;;;2.55;2.45;;;10.00;99.90;;;;;;4959592;28;20042;-73
2023/01/04 12:50:07;;;;;;;2.10;2.00;;;9.90;99.90;;;;;;4968062;28;20509;-74
2023/01/04 12:52:54;;;;;;;2.00;1.90;;;9.90;99.90;;;;;;4953421;28;20054;-74
2023/01/04 12:55:43;;;;;;;1.60;1.50;;;9.80;99.90;;;;;;4970678;28;20420;-74
2023/01/04 12:58:28;;;;;;;1.60;1.50;;;9.80;99.90;;;;;;4954481;28;20078;-72
2023/01/04 13:01:34;;;;;;;1.48;1.38;;;9.90;99.90;;;;;;4962223;28;20061;-72
2023/01/04 13:04:40;;;;;;;1.70;1.60;;;9.90;99.90;;;;;;4966434;28;20586;-72
2023/01/04 13:07:41;;;;;;;2.28;1.60;;;9.90;99.90;;;;;;4960331;28;20565;-71
2023/01/04 13:10:28;;;;;;;1.70;1.40;;;9.90;99.90;;;;;;4936941;28;20050;-73
2023/01/04 13:13:19;;;;;;;1.88;1.20;;;9.90;99.90;;;;;;4973958;28;20524;-71
2023/01/04 13:16:09;;;;;;;1.23;1.13;;;9.80;99.90;;;;;;4984496;28;20516;-72
2023/01/04 13:19:00;;;;;;;2.28;1.17;;;9.80;99.90;;;;;;4978873;28;20536;-73
2023/01/04 13:21:33;;;;;;;1.65;1.55;;;9.80;99.90;;;;;;4986046;28;20400;-72
2023/01/04 13:24:03;;;;;;;1.00;1.00;;;9.90;99.90;;;;;;4979241;28;20042;-71
2023/01/04 13:26:30;;;;;;;0.80;0.80;;;9.90;99.90;;;;;;4989142;28;20141;-72
2023/01/04 13:29:13;;;;;;;1.35;1.00;;;9.90;99.90;;;;;;4964488;28;20074;-72
2023/01/04 13:31:48;;;;;;;0.93;0.93;;;9.90;99.90;;;;;;4993106;28;20126;-74
2023/01/04 13:34:29;;;;;;;0.80;0.80;;;10.00;99.90;;;;;;4987929;28;20061;-72
2023/01/04 13:37:12;;;;;;;0.90;0.90;;;10.00;99.90;;;;;;4990849;28;20116;-72
2023/01/04 13:40:00;;;;;;;1.00;1.00;;;10.00;99.90;;;;;;4983803;28;20504;-73
2023/01/04 13:42:34;;;;;;;1.40;1.30;;;10.10;99.90;;;;;;4968349;28;20146;-72
2023/01/04 13:45:07;;;;;;;1.92;1.25;;;10.10;99.90;;;;;;4987579;28;20057;-72
2023/01/04 13:47:48;;;;;;;1.55;1.55;;;10.20;99.90;;;;;;4990879;28;20492;-72
2023/01/04 13:50:26;;;;;;;1.70;1.60;;;10.20;99.90;;;;;;4986158;28;21146;-73
2023/01/04 13:52:53;;;;;;;2.30;2.10;;;10.20;99.90;;;;;;4991240;28;20049;-72
2023/01/04 13:55:37;;;;;;;2.63;2.42;;;10.20;99.90;;;;;;4988255;28;20519;-72
2023/01/04 13:58:14;;;;;;;4.22;3.65;;;10.30;99.90;;;;;;4992176;28;20058;-72
2023/01/04 14:00:53;;;;;;;3.45;2.63;;;10.30;99.90;;;;;;4969274;28;20133;-72
2023/01/04 14:03:23;;;;;;;3.53;3.22;;;10.30;99.90;;;;;;4960378;28;20049;-72
2023/01/04 14:05:53;;;;;;;3.15;2.83;;;10.30;99.90;;;;;;4993071;28;20279;-73
2023/01/04 14:08:30;;;;;;;5.25;2.92;;;10.30;99.90;;;;;;4988764;28;20046;-73
2023/01/04 14:10:57;;;;;;;2.97;1.55;;;10.30;99.90;;;;;;4982637;28;20299;-73